Latest Weather Observations for Gympie

IDQ60801

Issued at 2:05 pm EST Monday 20 October 2014 (issued every 30 minutes, with the page automatically refreshed every 10 minutes)

About weather observations | Map of weather stations | Latest weather observations for QLD | Other Formats
Station Details ID: 040093 Name: GYMPIE Lat: -26.18 Lon: 152.64 Height: 64.5 m
Data from the previous 72 hours. | See also: Recent months at Gympie
Date/Time
EST
Temp
°C
App
Temp
°C
Dew
Point
Rel
Hum
%
Delta-T
°C
Wind Press
QNH
hPa
Press
MSL
hPa
Rain
since 9 am
mm
Dir
 
Spd
km/h
Gust
km/h
Spd
kts
Gust
kts
20/02:00pm 27.5 25.7 9.3 32 10.0 SE 9 17 5 9 1021.3 1021.1 0.0
20/01:30pm 27.6 25.7 9.0 31 10.2 E 9 20 5 11 1021.6 1021.4 0.0
20/01:00pm 26.9 25.7 10.2 35 9.3 ENE 7 13 4 7 1022.1 1021.9 0.0
20/12:30pm 26.9 25.3 10.2 35 9.4 E 9 17 5 9 1022.6 1022.4 0.0
20/12:00pm 26.2 25.7 10.8 38 8.6 S 4 11 2 6 1023.3 1023.0 0.0
20/11:30am 25.6 24.8 11.0 40 8.2 ENE 6 15 3 8 1023.7 1023.4 0.0
20/11:00am 25.1 24.2 11.3 42 7.8 ESE 7 13 4 7 1024.2 1023.9 0.0
20/10:30am 24.4 23.7 11.4 44 7.3 SSW 6 9 3 5 1024.7 1024.4 0.0
20/10:00am 23.8 23.1 11.5 46 6.9 ENE 6 13 3 7 1025.2 1025.0 0.0
20/09:30am 22.8 22.3 12.1 51 6.1 E 6 7 3 4 1025.5 1025.3 0.0
20/09:00am 22.2 21.7 12.2 53 5.6 SE 6 11 3 6 1025.9 1025.7 0.0
20/08:30am 21.6 21.3 12.7 57 5.1 SE 6 11 3 6 1025.8 1025.6 0.0
20/08:00am 19.9 20.1 12.9 64 3.9 S 4 7 2 4 1025.9 1025.7 0.0
20/07:30am 17.8 18.3 12.9 73 2.7 ESE 2 6 1 3 1025.8 1025.6 0.0
20/07:00am 15.7 16.6 12.8 83 1.6 CALM 0 0 0 0 1025.7 1025.5 0.0
20/06:30am 13.4 14.1 12.3 93 0.6 CALM 0 0 0 0 1025.5 1025.3 0.0
20/06:00am 11.7 12.1 11.1 96 0.3 CALM 0 0 0 0 1025.3 1025.1 0.0
20/05:30am 11.3 11.5 10.7 96 0.3 CALM 0 0 0 0 1024.9 1024.6 0.0
20/05:00am 11.5 11.8 10.9 96 0.3 CALM 0 0 0 0 1024.5 1024.2 0.0
20/04:30am 11.6 11.8 10.7 94 0.5 CALM 0 0 0 0 1024.5 1024.2 0.0
20/04:00am 12.1 12.5 11.3 95 0.4 CALM 0 0 0 0 1024.3 1024.0 0.0
20/03:30am 12.4 12.9 11.5 94 0.5 CALM 0 0 0 0 1024.2 1023.9 0.0
20/03:00am 12.7 13.2 11.6 93 0.6 CALM 0 0 0 0 1024.2 1023.9 0.0
20/02:30am 13.4 14.1 12.1 92 0.7 CALM 0 0 0 0 1024.3 1024.0 0.0
20/02:00am 13.8 14.6 12.5 92 0.7 CALM 0 0 0 0 1024.6 1024.3 0.0
20/01:30am 14.0 14.7 12.2 89 1.0 E 0 0 0 0 1024.7 1024.4 0.0
20/01:00am 14.5 15.3 12.7 89 1.0 CALM 0 0 0 0 1025.0 1024.7 0.0
20/12:30am 14.6 15.4 12.5 87 1.1 E 0 0 0 0 1025.3 1025.1 0.0
20/12:00am 15.1 15.9 12.4 84 1.5 E 0 0 0 0 1025.6 1025.4 0.0
 
Date/Time
EST
Temp
°C
App
Temp
°C
Dew
Point
Rel
Hum
%
Delta-T
°C
Wind Press
QNH
hPa
Press
MSL
hPa
Rain
since 9 am
mm
Dir
 
Spd
km/h
Gust
km/h
Spd
kts
Gust
kts
19/11:30pm 15.9 16.7 12.6 81 1.8 CALM 0 0 0 0 1025.9 1025.7 0.0
19/11:00pm 16.4 17.4 13.1 81 1.8 CALM 0 0 0 0 1026.1 1025.9 0.0
19/10:30pm 16.1 17.0 13.0 82 1.7 CALM 0 0 0 0 1026.3 1026.1 0.0
19/10:00pm 15.7 16.6 13.0 84 1.5 CALM 0 0 0 0 1026.3 1026.1 0.0
19/09:30pm 15.2 16.0 12.5 84 1.5 CALM 0 0 0 0 1026.3 1026.1 0.0
19/09:00pm 16.0 16.8 12.7 81 1.8 CALM 0 0 0 0 1026.1 1025.9 0.0
19/08:30pm 16.6 17.5 12.9 79 2.1 CALM 0 0 0 0 1025.9 1025.7 0.0
19/08:00pm 17.4 18.4 13.1 76 2.4 CALM 0 0 0 0 1025.7 1025.5 0.0
19/07:30pm 17.9 18.7 12.6 71 3.0 CALM 0 0 0 0 1025.6 1025.4 0.0
19/07:00pm 18.8 19.6 12.5 67 3.5 CALM 0 2 0 1 1025.3 1025.1 0.0
19/06:30pm 20.1 19.6 12.8 63 4.1 E 7 13 4 7 1024.9 1024.6 0.0
19/06:00pm 20.6 19.0 12.8 61 4.4 E 13 22 7 12 1024.4 1024.1 0.0
19/05:30pm 21.7 20.1 12.8 57 5.1 E 13 24 7 13 1023.9 1023.6 0.0
19/05:00pm 22.7 20.1 12.0 50 6.0 E 17 28 9 15 1023.3 1023.0 0.0
19/04:30pm 23.7 21.0 11.7 47 6.8 ESE 17 28 9 15 1022.9 1022.7 0.0
19/04:00pm 24.4 22.3 11.0 43 7.5 ESE 13 24 7 13 1022.8 1022.6 0.0
19/03:30pm 25.0 22.9 11.2 42 7.8 SE 13 26 7 14 1022.8 1022.6 0.0
19/03:00pm 24.8 22.2 10.7 41 7.9 SE 15 24 8 13 1022.8 1022.6 0.0
19/02:30pm 24.4 21.7 10.3 41 7.8 ESE 15 22 8 12 1023.2 1022.9 0.0
19/02:00pm 25.0 22.7 11.6 43 7.6 SE 15 32 8 17 1023.5 1023.2 0.0
19/01:30pm 25.3 23.3 11.5 42 7.8 SE 13 26 7 14 1023.8 1023.5 0.0
19/01:00pm 25.2 23.0 12.1 44 7.5 SSE 15 28 8 15 1024.3 1024.0 0.0
19/12:30pm 25.1 22.9 12.0 44 7.5 SE 15 28 8 15 1024.6 1024.3 0.0
19/12:00pm 24.1 22.6 11.8 46 7.0 SSE 11 26 6 14 1025.1 1024.8 0.0
19/11:30am 23.3 21.0 12.9 52 6.0 E 17 26 9 14 1025.4 1025.2 0.0
19/11:00am 23.6 22.2 13.5 53 5.9 SE 13 28 7 15 1025.9 1025.7 0.0
19/10:30am 23.3 21.0 12.9 52 6.0 E 17 28 9 15 1026.2 1026.0 0.0
19/10:00am 23.6 21.7 14.3 56 5.5 E 17 28 9 15 1026.7 1026.5 0.0
19/09:30am 23.4 21.8 12.7 51 6.1 SE 13 20 7 11 1026.9 1026.7 0.0
19/09:00am 21.4 19.7 12.3 56 5.1 SE 13 26 7 14 1027.3 1027.1 0.0
19/08:30am 22.4 20.3 13.5 57 5.2 SE 17 26 9 14 1027.3 1027.1 0.0
19/08:00am 20.7 20.0 14.4 67 3.7 SE 11 19 6 10 1027.3 1027.1 0.0
19/07:30am 20.2 19.9 14.3 69 3.4 SSE 9 17 5 9 1027.1 1026.9 0.0
19/07:00am 19.6 19.8 14.8 74 2.8 SSE 7 13 4 7 1027.0 1026.8 0.0
19/06:30am 18.1 18.8 14.6 80 2.0 SSE 4 11 2 6 1026.7 1026.5 0.0
19/06:00am 16.0 16.7 14.4 90 0.9 S 4 6 2 3 1026.5 1026.3 0.0
19/05:30am 15.6 16.6 14.3 92 0.7 S 2 4 1 2 1026.1 1025.9 0.0
19/05:00am 15.9 16.7 14.8 93 0.6 S 4 6 2 3 1025.8 1025.6 0.0
19/04:30am 15.1 15.5 13.6 91 0.8 SSE 4 6 2 3 1025.4 1025.2 0.0
19/04:00am 16.5 17.9 14.3 87 1.3 CALM 0 0 0 0 1025.1 1024.8 0.0
19/03:30am 16.3 17.4 14.5 89 1.0 S 2 4 1 2 1025.0 1024.7 0.0
19/03:00am 17.1 18.2 14.7 86 1.4 SSE 2 4 1 2 1024.9 1024.6 0.0
19/02:30am 17.7 17.9 14.6 82 1.8 ESE 7 15 4 8 1025.0 1024.7 0.0
19/02:00am 17.5 17.8 14.4 82 1.8 SE 6 9 3 5 1025.1 1024.8 0.0
19/01:30am 17.3 17.4 14.0 81 1.9 S 6 7 3 4 1025.0 1024.7 0.0
19/01:00am 18.0 18.6 14.3 79 2.1 SSE 4 7 2 4 1025.4 1025.2 0.0
19/12:30am 18.2 18.4 14.1 77 2.4 SSE 6 11 3 6 1025.6 1025.4 0.0
19/12:00am 18.2 18.4 14.3 78 2.2 SSE 6 11 3 6 1026.0 1025.8 0.0
 
Date/Time
EST
Temp
°C
App
Temp
°C
Dew
Point
Rel
Hum
%
Delta-T
°C
Wind Press
QNH
hPa
Press
MSL
hPa
Rain
since 9 am
mm
Dir
 
Spd
km/h
Gust
km/h
Spd
kts
Gust
kts
18/11:30pm 18.2 18.9 14.5 79 2.1 SSE 4 7 2 4 1026.3 1026.1 0.0
18/11:00pm 18.4 18.6 14.7 79 2.1 S 7 11 4 6 1026.3 1026.1 0.0
18/10:30pm 18.0 18.1 14.5 80 2.0 S 7 11 4 6 1026.4 1026.2 0.0
18/10:00pm 18.5 18.3 14.8 79 2.1 SSE 9 15 5 8 1026.5 1026.3 0.0
18/09:30pm 18.6 18.5 14.9 79 2.2 SSE 9 15 5 8 1026.5 1026.3 0.0
18/09:00pm 18.0 18.4 14.7 81 1.9 SSE 6 7 3 4 1026.3 1026.1 0.0
18/08:30pm 18.1 18.4 14.6 80 2.0 SSE 6 7 3 4 1026.1 1025.9 0.0
18/08:00pm 18.5 18.8 14.6 78 2.3 SE 6 9 3 5 1025.9 1025.7 0.0
18/07:30pm 18.8 19.2 14.7 77 2.4 SSE 6 9 3 5 1025.6 1025.4 0.0
18/07:00pm 19.2 19.4 14.7 75 2.6 SSE 7 11 4 6 1025.3 1025.1 0.0
18/06:30pm 19.8 19.1 14.2 70 3.2 SE 11 22 6 12 1025.0 1024.7 0.0
18/06:00pm 20.4 19.7 13.1 63 4.1 SE 9 15 5 8 1024.4 1024.1 0.0
18/05:30pm 21.9 20.9 13.3 58 5.0 SE 11 22 6 12 1023.8 1023.5 0.0
18/05:00pm 22.9 21.2 12.5 52 5.9 SE 13 22 7 12 1023.1 1022.8 0.0
18/04:30pm 23.5 21.5 11.5 47 6.8 SE 13 26 7 14 1022.8 1022.6 0.0
18/04:00pm 24.0 21.8 10.7 43 7.4 SE 13 22 7 12 1022.5 1022.3 0.0
18/03:30pm 24.8 22.4 11.4 43 7.6 SE 15 28 8 15 1022.4 1022.2 0.0
18/03:00pm 23.8 20.6 11.2 45 7.0 SE 19 30 10 16 1022.5 1022.3 0.0
18/02:30pm 25.1 22.2 12.3 45 7.4 SSE 19 30 10 16 1022.5 1022.3 0.0
18/02:00pm 25.4 23.3 12.3 44 7.5 SE 15 24 8 13 1022.7 1022.5 0.0
18/01:30pm 26.3 24.2 12.4 42 8.1 SE 15 30 8 16 1022.9 1022.7 0.0
18/01:00pm 23.6 20.5 11.6 47 6.7 SE 19 30 10 16 1023.5 1023.2 0.0
18/12:30pm 26.1 24.1 13.9 47 7.2 SSE 17 30 9 16 1023.5 1023.2 0.0
18/12:00pm 25.8 24.4 13.3 46 7.3 SE 13 32 7 17 1023.9 1023.6 0.0
18/11:30am 24.3 22.4 11.9 45 7.1 SE 13 24 7 13 1024.3 1024.0 0.0
18/11:00am 24.4 23.4 13.3 50 6.4 SSE 11 19 6 10 1024.6 1024.3 0.0
18/10:30am 24.1 22.2 13.0 50 6.4 SE 15 28 8 15 1025.1 1024.8 0.0
18/10:00am 23.6 21.8 13.2 52 6.0 SE 15 26 8 14 1025.3 1025.1 0.0
18/09:30am 22.6 21.3 13.7 57 5.2 SSE 13 22 7 12 1025.4 1025.2 0.0
18/09:00am 22.0 21.9 14.9 64 4.2 SSE 9 15 5 8 1025.6 1025.4 0.2
18/08:30am 20.9 20.5 15.2 70 3.4 SSE 11 17 6 9 1025.5 1025.3 0.2
18/08:00am 19.4 19.7 14.9 75 2.6 SSE 7 13 4 7 1025.5 1025.3 0.2
18/07:30am 18.5 19.2 15.7 84 1.7 SSE 6 9 3 5 1025.4 1025.2 0.2
18/07:00am 17.6 18.3 15.6 88 1.2 ESE 6 7 3 4 1025.1 1024.8 0.2
18/06:30am 17.2 17.9 15.7 91 0.9 SE 6 9 3 5 1024.7 1024.4 0.2
18/06:00am 16.9 17.5 15.4 91 0.9 SSE 6 7 3 4 1024.2 1023.9 0.2
18/05:30am 16.8 18.2 15.5 92 0.8 SE 2 4 1 2 1023.8 1023.5 0.2
18/05:00am 16.6 17.7 15.5 93 0.6 S 4 7 2 4 1023.5 1023.2 0.2
18/04:30am 16.6 17.7 15.5 93 0.6 SSE 4 6 2 3 1023.1 1022.8 0.2
18/04:00am 17.1 18.2 15.6 91 0.9 ENE 4 7 2 4 1022.6 1022.4 0.2
18/03:30am 16.9 17.6 15.6 92 0.8 ESE 6 9 3 5 1022.3 1022.1 0.2
18/03:00am 16.5 17.2 15.5 94 0.6 SE 6 11 3 6 1022.0 1021.8 0.2
18/02:30am 16.7 16.5 15.6 93 0.6 S 11 20 6 11 1021.9 1021.7 0.0
18/02:00am 15.1 16.4 14.1 94 0.6 CALM 0 4 0 2 1021.7 1021.5 0.0
18/01:30am 15.2 16.5 14.1 93 0.6 CALM 0 0 0 0 1021.6 1021.4 0.0
18/01:00am 15.1 16.2 13.6 91 0.8 CALM 0 0 0 0 1021.8 1021.6 0.0
18/12:30am 15.5 16.8 14.2 92 0.7 CALM 0 0 0 0 1021.9 1021.7 0.0
18/12:00am 15.7 16.9 13.9 89 1.0 CALM 0 0 0 0 1021.9 1021.7 0.0
 
Date/Time
EST
Temp
°C
App
Temp
°C
Dew
Point
Rel
Hum
%
Delta-T
°C
Wind Press
QNH
hPa
Press
MSL
hPa
Rain
since 9 am
mm
Dir
 
Spd
km/h
Gust
km/h
Spd
kts
Gust
kts
17/11:30pm 16.6 18.1 14.6 88 1.2 CALM 0 0 0 0 1022.0 1021.8 0.0
17/11:00pm 16.3 17.6 14.0 86 1.3 CALM 0 0 0 0 1021.9 1021.7 0.0
17/10:30pm 16.7 18.2 14.7 88 1.2 CALM 0 0 0 0 1021.8 1021.6 0.0
17/10:00pm 17.2 18.7 14.7 85 1.4 CALM 0 0 0 0 1021.7 1021.5 0.0
17/09:30pm 17.3 18.8 14.6 84 1.6 CALM 0 0 0 0 1021.6 1021.4 0.0
17/09:00pm 18.1 19.6 14.6 80 2.0 CALM 0 0 0 0 1021.5 1021.3 0.0
17/08:30pm 18.8 20.5 15.1 79 2.2 CALM 0 0 0 0 1021.3 1021.1 0.0
17/08:00pm 19.4 20.6 14.9 75 2.6 SE 2 4 1 2 1021.0 1020.8 0.0
17/07:30pm 19.8 21.0 14.8 73 2.9 ESE 2 6 1 3 1020.5 1020.3 0.0
17/07:00pm 21.0 21.5 14.9 68 3.6 E 6 7 3 4 1019.9 1019.7 0.0
17/06:30pm 21.8 22.0 14.7 64 4.2 E 7 13 4 7 1019.2 1019.0 0.0
17/06:00pm 22.6 22.1 13.9 58 5.1 E 9 17 5 9 1018.7 1018.5 0.0
17/05:30pm 23.6 22.2 13.5 53 5.9 E 13 24 7 13 1018.1 1017.9 0.0
17/05:00pm 24.9 23.4 11.8 44 7.5 E 11 19 6 10 1017.6 1017.4 0.0
17/04:30pm 25.6 24.0 12.8 45 7.4 E 13 22 7 12 1017.0 1016.8 0.0
17/04:00pm 26.4 24.0 12.8 43 7.9 ENE 17 28 9 15 1016.6 1016.4 0.0
17/03:30pm 27.5 25.9 11.5 37 9.2 ENE 11 22 6 12 1016.4 1016.2 0.0
17/03:00pm 28.8 26.1 11.8 35 9.9 E 17 28 9 15 1016.1 1015.9 0.0
17/02:30pm 29.3 27.7 7.8 26 11.7 NE 6 11 3 6 1016.2 1016.0 0.0

Other Formats:

Comma delimited format used in spreadsheet applications
http://www.bom.gov.au/fwo/IDQ60801/IDQ60801.94566.axf

JavaScript Object Notation format (JSON) in row-major order
http://www.bom.gov.au/fwo/IDQ60801/IDQ60801.94566.json